Time;durP1;ratioP1;P1;durP2;ratioP2;P2;SDS_P1;SDS_P2;PMS_P1;PMS_P2;Temp;Humidity;BMP_temperature;BMP_pressure;BME280_temperature;BME280_humidity;BME280_pressure;Samples;Min_cycle;Max_cycle;Signal;HPM_P1;HPM_P2
2022/01/06 00:00:13;;;;;;;5.63;1.00;;;4.70;99.90;;;;;;5030191;28;20448;-74
2022/01/06 00:02:40;;;;;;;5.82;1.13;;;4.80;99.90;;;;;;5013626;28;20041;-74
2022/01/06 00:05:07;;;;;;;10.38;1.45;;;4.70;99.90;;;;;;5024832;28;20103;-73
2022/01/06 00:07:33;;;;;;;6.50;2.40;;;4.60;99.90;;;;;;5056752;28;20432;-73
2022/01/06 00:10:00;;;;;;;1.02;0.52;;;4.60;99.90;;;;;;5046989;28;20045;-74
2022/01/06 00:12:38;;;;;;;0.40;0.40;;;4.50;99.90;;;;;;5063246;28;20053;-74
2022/01/06 00:15:27;;;;;;;3.05;1.33;;;4.60;99.90;;;;;;5020404;28;20053;-73
2022/01/06 00:23:31;;;;;;;10.23;2.25;;;4.60;99.90;;;;;;5029090;28;20059;-74
2022/01/06 00:25:59;;;;;;;12.55;2.25;;;4.60;99.90;;;;;;5029586;28;20041;-73
2022/01/06 00:28:25;;;;;;;0.75;0.32;;;4.60;99.90;;;;;;5029647;28;20175;-74
2022/01/06 00:30:51;;;;;;;7.13;1.48;;;4.60;99.90;;;;;;5016055;28;20041;-74
2022/01/06 00:33:18;;;;;;;7.75;1.33;;;4.60;99.90;;;;;;5045796;28;20050;-74
2022/01/06 00:35:45;;;;;;;10.77;1.88;;;4.70;99.90;;;;;;5029457;28;20076;-74
2022/01/06 00:38:11;;;;;;;18.90;1.95;;;4.70;99.90;;;;;;5026950;28;20045;-74
2022/01/06 00:40:37;;;;;;;8.95;1.08;;;4.70;99.90;;;;;;5027834;28;20049;-74
2022/01/06 00:43:05;;;;;;;12.60;2.65;;;4.80;99.90;;;;;;5029182;28;20128;-74
2022/01/06 00:45:32;;;;;;;6.75;1.25;;;4.80;99.90;;;;;;5029123;28;20103;-74
2022/01/06 00:47:59;;;;;;;2.92;0.95;;;4.80;99.90;;;;;;5021834;28;20044;-74
2022/01/06 00:50:25;;;;;;;0.20;0.20;;;4.70;99.90;;;;;;5029805;28;20126;-74
2022/01/06 00:52:51;;;;;;;9.55;1.67;;;4.70;99.90;;;;;;5028421;28;20394;-73
2022/01/06 00:55:17;;;;;;;7.95;1.05;;;4.60;99.90;;;;;;5029319;28;20045;-74
2022/01/06 00:57:43;;;;;;;1.38;0.75;;;4.60;99.90;;;;;;5025898;28;20460;-73
2022/01/06 01:00:10;;;;;;;8.68;1.52;;;4.60;99.90;;;;;;5029503;28;20091;-74
2022/01/06 01:02:35;;;;;;;5.50;0.75;;;4.60;99.90;;;;;;5028616;28;20045;-74
2022/01/06 01:05:02;;;;;;;0.50;0.45;;;4.50;99.90;;;;;;5026844;28;20116;-74
2022/01/06 01:07:28;;;;;;;5.70;0.98;;;4.50;99.90;;;;;;5003549;28;20045;-73
2022/01/06 01:09:54;;;;;;;15.45;2.67;;;4.40;99.90;;;;;;5025245;28;20045;-74
2022/01/06 01:12:22;;;;;;;12.18;1.13;;;4.30;99.90;;;;;;5024022;28;20553;-73
2022/01/06 01:14:58;;;;;;;1.45;0.55;;;4.30;99.90;;;;;;5059543;28;20053;-74
2022/01/06 01:17:26;;;;;;;28.75;1.95;;;4.20;99.90;;;;;;5028309;28;20111;-73
2022/01/06 01:19:53;;;;;;;10.85;1.98;;;4.20;99.90;;;;;;5029170;28;20042;-73
2022/01/06 01:22:19;;;;;;;5.47;0.68;;;4.20;99.90;;;;;;5027190;28;20096;-73
2022/01/06 01:24:44;;;;;;;7.65;1.25;;;4.10;99.90;;;;;;5012416;28;20045;-74
2022/01/06 01:27:10;;;;;;;1.90;0.93;;;4.10;99.90;;;;;;5028343;28;20041;-73
2022/01/06 01:29:45;;;;;;;0.43;0.43;;;4.00;99.90;;;;;;5041847;28;20057;-74
2022/01/06 01:32:10;;;;;;;12.35;1.63;;;4.00;99.90;;;;;;5023223;28;20053;-74
2022/01/06 01:34:38;;;;;;;16.13;3.13;;;4.00;99.90;;;;;;5028761;28;20045;-74
2022/01/06 01:37:04;;;;;;;6.28;1.05;;;4.00;99.90;;;;;;5027944;28;20049;-74
2022/01/06 01:39:30;;;;;;;14.32;3.95;;;4.00;99.90;;;;;;5019520;28;20453;-73
2022/01/06 01:41:56;;;;;;;10.32;2.55;;;4.10;99.90;;;;;;5025404;28;20045;-74
2022/01/06 01:44:22;;;;;;;10.60;2.60;;;4.10;99.90;;;;;;5043340;28;20061;-74
2022/01/06 01:47:02;;;;;;;4.63;1.42;;;4.00;99.90;;;;;;5028178;28;20037;-73
2022/01/06 01:51:56;;;;;;;0.32;0.32;;;3.90;99.90;;;;;;5028427;28;20081;-74
2022/01/06 01:54:22;;;;;;;6.55;0.55;;;3.90;99.90;;;;;;5028531;28;20045;-74
2022/01/06 01:56:50;;;;;;;18.52;2.55;;;3.80;99.90;;;;;;5020154;28;20049;-73
2022/01/06 01:59:17;;;;;;;0.20;0.20;;;3.70;99.90;;;;;;5028283;28;20037;-74
2022/01/06 02:01:43;;;;;;;19.45;1.98;;;3.70;99.90;;;;;;5027451;28;20084;-74
2022/01/06 02:04:09;;;;;;;21.90;1.73;;;3.60;99.90;;;;;;5027903;28;20072;-73
2022/01/06 02:06:35;;;;;;;10.80;1.80;;;3.70;99.90;;;;;;5007584;28;20165;-74
2022/01/06 02:09:01;;;;;;;6.32;1.88;;;3.70;99.90;;;;;;5026114;28;20124;-73
2022/01/06 02:11:26;;;;;;;16.95;2.05;;;3.70;99.90;;;;;;5031312;28;20088;-74
2022/01/06 02:13:55;;;;;;;11.05;1.88;;;3.70;99.90;;;;;;5033335;28;20037;-74
2022/01/06 02:16:23;;;;;;;13.55;2.22;;;3.70;99.90;;;;;;5025266;28;20045;-73
2022/01/06 02:18:49;;;;;;;4.28;1.15;;;3.70;99.90;;;;;;5031774;28;20030;-74
2022/01/06 02:21:16;;;;;;;14.48;1.65;;;3.70;99.90;;;;;;5048540;28;20470;-74
2022/01/06 02:23:42;;;;;;;19.38;3.03;;;3.70;99.90;;;;;;5027914;28;20041;-74
2022/01/06 02:26:07;;;;;;;1.13;1.13;;;3.60;99.90;;;;;;5027434;28;20047;-74
2022/01/06 02:28:33;;;;;;;5.72;1.13;;;3.60;99.90;;;;;;5031487;28;20037;-74
2022/01/06 02:30:59;;;;;;;6.00;1.25;;;3.60;99.90;;;;;;5028802;28;20086;-74
2022/01/06 02:33:25;;;;;;;8.75;2.53;;;3.60;99.90;;;;;;5031790;28;20077;-74
2022/01/06 02:35:54;;;;;;;10.82;1.67;;;3.60;99.90;;;;;;5031904;28;20054;-74
2022/01/06 02:38:21;;;;;;;6.13;1.55;;;3.70;99.90;;;;;;5011697;28;20042;-74
2022/01/06 02:40:47;;;;;;;6.75;1.42;;;3.60;99.90;;;;;;5022927;28;20172;-74
2022/01/06 02:43:17;;;;;;;10.13;1.58;;;3.70;99.90;;;;;;5031074;28;20110;-74
2022/01/06 02:45:46;;;;;;;0.95;0.85;;;3.70;99.90;;;;;;5031713;28;20077;-74
2022/01/06 02:48:14;;;;;;;0.20;0.20;;;3.70;99.90;;;;;;5026544;28;20042;-74
2022/01/06 02:50:47;;;;;;;8.00;1.65;;;3.70;99.90;;;;;;5029087;28;20049;-74
2022/01/06 02:53:15;;;;;;;0.30;0.30;;;3.70;99.90;;;;;;5031549;28;20140;-74
2022/01/06 02:55:50;;;;;;;22.88;2.15;;;3.70;99.90;;;;;;5029230;28;20088;-74
2022/01/06 02:58:20;;;;;;;3.40;2.05;;;3.60;99.90;;;;;;5027137;28;20073;-74
2022/01/06 03:00:46;;;;;;;0.30;0.30;;;3.50;99.90;;;;;;5019011;28;20041;-74
2022/01/06 03:03:12;;;;;;;0.35;0.35;;;3.50;99.90;;;;;;5031958;28;20041;-74
2022/01/06 03:05:38;;;;;;;0.88;0.80;;;3.40;99.90;;;;;;5031171;28;20041;-74
2022/01/06 03:08:04;;;;;;;0.30;0.30;;;3.30;99.90;;;;;;5025847;28;20048;-74
2022/01/06 03:10:35;;;;;;;5.60;1.92;;;3.20;99.90;;;;;;5031055;28;20041;-74
2022/01/06 03:13:00;;;;;;;2.63;0.77;;;3.20;99.90;;;;;;5031155;28;20095;-74
2022/01/06 03:15:26;;;;;;;0.30;0.30;;;3.20;99.90;;;;;;5030683;28;20128;-74
2022/01/06 03:17:56;;;;;;;6.25;1.38;;;3.10;99.90;;;;;;5023017;28;20037;-74
2022/01/06 03:20:23;;;;;;;8.65;1.40;;;3.10;99.90;;;;;;5030592;28;20152;-74
2022/01/06 03:22:50;;;;;;;8.55;1.30;;;3.10;99.90;;;;;;5031112;28;20063;-74
2022/01/06 03:25:17;;;;;;;1.95;1.52;;;3.20;99.90;;;;;;5024087;28;20045;-73
2022/01/06 03:27:42;;;;;;;9.85;1.75;;;3.20;99.90;;;;;;5030828;28;20038;-74
2022/01/06 03:30:12;;;;;;;0.40;0.40;;;3.20;99.90;;;;;;5028116;28;20044;-74
2022/01/06 03:32:38;;;;;;;0.20;0.20;;;3.10;99.90;;;;;;5030622;28;20049;-74
2022/01/06 03:35:06;;;;;;;0.20;0.20;;;3.10;99.90;;;;;;5011290;28;20395;-74
2022/01/06 03:37:31;;;;;;;5.75;1.15;;;3.00;99.90;;;;;;5028854;28;20459;-74
2022/01/06 03:39:57;;;;;;;1.55;0.43;;;2.90;99.90;;;;;;5013432;28;20128;-74
2022/01/06 03:42:23;;;;;;;3.30;0.77;;;2.90;99.90;;;;;;5030597;28;20099;-74
2022/01/06 03:44:49;;;;;;;2.63;1.23;;;2.80;99.90;;;;;;5030979;28;20472;-73
2022/01/06 03:47:15;;;;;;;8.85;1.15;;;2.80;99.90;;;;;;5028308;28;20151;-74
2022/01/06 03:49:40;;;;;;;27.05;1.25;;;2.80;99.90;;;;;;5021984;28;20050;-73
2022/01/06 03:52:06;;;;;;;7.28;1.90;;;2.80;99.90;;;;;;5030501;28;20425;-74
2022/01/06 03:54:32;;;;;;;1.45;1.20;;;2.70;99.90;;;;;;5030492;28;20049;-74
2022/01/06 03:56:59;;;;;;;10.05;1.92;;;2.70;99.90;;;;;;5030194;28;20045;-74
2022/01/06 03:59:24;;;;;;;5.97;1.23;;;2.60;99.90;;;;;;5025320;28;20080;-74
2022/01/06 04:01:50;;;;;;;9.23;1.85;;;2.60;99.90;;;;;;5030241;28;20446;-73
2022/01/06 04:04:16;;;;;;;16.58;2.25;;;2.60;99.90;;;;;;5014101;28;20029;-74
2022/01/06 04:06:42;;;;;;;9.25;1.27;;;2.60;99.90;;;;;;5024678;28;20049;-73
2022/01/06 04:09:10;;;;;;;5.20;0.93;;;2.60;99.90;;;;;;5030536;28;20045;-74
2022/01/06 04:11:36;;;;;;;2.10;1.95;;;2.60;99.90;;;;;;5030580;28;20387;-74
2022/01/06 04:14:02;;;;;;;2.38;0.95;;;2.60;99.90;;;;;;5030527;28;20052;-74
2022/01/06 04:16:29;;;;;;;2.47;1.27;;;2.50;99.90;;;;;;5025516;28;20045;-74
2022/01/06 04:18:55;;;;;;;1.38;0.82;;;2.50;99.90;;;;;;5013861;28;20049;-74
2022/01/06 04:21:21;;;;;;;3.60;1.58;;;2.40;99.90;;;;;;5029528;28;20041;-74
2022/01/06 04:23:49;;;;;;;3.70;1.33;;;2.40;99.90;;;;;;5027675;28;20118;-74
2022/01/06 04:26:16;;;;;;;15.90;2.50;;;2.30;99.90;;;;;;5029711;28;20041;-74
2022/01/06 04:28:42;;;;;;;0.20;0.20;;;2.30;99.90;;;;;;5016238;28;20116;-74
2022/01/06 04:31:08;;;;;;;3.15;1.05;;;2.30;99.90;;;;;;5020892;28;20049;-74
2022/01/06 04:33:35;;;;;;;8.05;1.50;;;2.20;99.90;;;;;;5029298;28;20502;-73
2022/01/06 04:36:02;;;;;;;2.28;0.93;;;2.20;99.90;;;;;;5028467;28;20045;-73
2022/01/06 04:38:27;;;;;;;6.50;1.05;;;2.10;99.90;;;;;;5012077;28;20413;-74
2022/01/06 04:40:53;;;;;;;4.47;1.70;;;2.10;99.90;;;;;;5028301;28;20041;-74
2022/01/06 04:43:19;;;;;;;11.77;2.20;;;2.10;99.90;;;;;;5029524;28;20041;-74
2022/01/06 04:45:45;;;;;;;0.30;0.30;;;2.10;99.90;;;;;;5028939;28;20049;-74
2022/01/06 04:48:11;;;;;;;1.38;0.40;;;2.00;99.90;;;;;;5020818;28;20037;-74
2022/01/06 04:50:37;;;;;;;0.30;0.30;;;2.00;99.90;;;;;;5025441;28;20087;-74
2022/01/06 04:53:02;;;;;;;0.20;0.20;;;2.00;99.90;;;;;;5029513;28;20409;-73
2022/01/06 04:55:28;;;;;;;0.50;0.50;;;1.90;99.90;;;;;;5029181;28;20053;-74
2022/01/06 04:57:54;;;;;;;0.20;0.20;;;1.80;99.90;;;;;;5025616;28;20496;-74
2022/01/06 05:00:20;;;;;;;0.30;0.30;;;1.70;99.90;;;;;;5029212;28;20080;-74
2022/01/06 05:02:45;;;;;;;0.20;0.20;;;1.60;99.90;;;;;;5028870;28;20047;-74
2022/01/06 05:05:13;;;;;;;0.20;0.20;;;1.50;99.90;;;;;;5011173;28;20521;-74
2022/01/06 05:07:41;;;;;;;0.20;0.20;;;1.40;99.90;;;;;;5028980;28;20044;-74
2022/01/06 05:10:08;;;;;;;0.20;0.20;;;1.20;99.90;;;;;;5029395;28;20037;-73
2022/01/06 05:12:39;;;;;;;0.20;0.20;;;1.10;99.90;;;;;;5029077;28;20045;-74
2022/01/06 05:15:05;;;;;;;0.30;0.30;;;1.00;99.90;;;;;;5030559;28;20561;-74
2022/01/06 05:17:31;;;;;;;0.50;0.50;;;0.90;99.90;;;;;;5045078;28;20041;-74
2022/01/06 05:19:56;;;;;;;4.40;3.30;;;0.80;99.90;;;;;;5029177;28;20106;-74
2022/01/06 05:22:22;;;;;;;0.30;0.30;;;0.80;99.90;;;;;;5028996;28;20045;-74
2022/01/06 05:24:48;;;;;;;0.20;0.20;;;0.70;99.90;;;;;;5023927;28;20592;-74
2022/01/06 05:27:14;;;;;;;0.40;0.40;;;0.70;99.90;;;;;;5028082;28;20037;-74
2022/01/06 05:29:39;;;;;;;0.30;0.30;;;0.60;99.90;;;;;;5012075;28;20038;-73
2022/01/06 05:32:06;;;;;;;0.30;0.30;;;0.50;99.90;;;;;;5027782;28;20493;-74
2022/01/06 05:34:31;;;;;;;0.30;0.30;;;0.50;99.90;;;;;;5028875;28;20049;-73
2022/01/06 05:36:57;;;;;;;0.20;0.20;;;0.40;99.90;;;;;;5028616;28;20045;-73
2022/01/06 05:39:23;;;;;;;0.30;0.30;;;0.30;99.90;;;;;;5023502;28;20421;-73
2022/01/06 05:41:49;;;;;;;0.30;0.30;;;0.30;99.90;;;;;;5028237;28;20045;-74
2022/01/06 05:44:15;;;;;;;0.63;0.50;;;0.30;99.90;;;;;;5029944;28;20045;-74
2022/01/06 05:46:41;;;;;;;14.85;0.98;;;0.30;99.90;;;;;;5027811;28;20046;-74
2022/01/06 05:49:06;;;;;;;1.63;0.82;;;0.30;99.90;;;;;;5030096;28;20092;-73
2022/01/06 05:51:32;;;;;;;0.63;0.63;;;0.30;99.90;;;;;;5032928;28;20038;-73
2022/01/06 05:53:58;;;;;;;0.95;0.50;;;0.40;99.90;;;;;;5032891;28;20037;-73
2022/01/06 05:56:26;;;;;;;0.30;0.30;;;0.40;99.90;;;;;;5022552;28;20410;-73
2022/01/06 05:58:52;;;;;;;0.20;0.20;;;0.50;99.90;;;;;;5031029;28;20128;-73
2022/01/06 06:01:18;;;;;;;0.30;0.30;;;0.40;99.90;;;;;;5032694;28;20125;-74
2022/01/06 06:03:43;;;;;;;0.20;0.20;;;0.40;99.90;;;;;;5020400;28;20049;-74
2022/01/06 06:06:09;;;;;;;0.30;0.30;;;0.30;99.90;;;;;;5032675;28;20037;-74
2022/01/06 06:08:35;;;;;;;0.73;0.73;;;0.30;99.90;;;;;;5032819;28;20128;-74
2022/01/06 06:11:00;;;;;;;0.30;0.30;;;0.30;99.90;;;;;;5029003;28;20037;-74
2022/01/06 06:13:26;;;;;;;0.30;0.30;;;0.20;99.90;;;;;;5032886;28;20029;-74
2022/01/06 06:15:52;;;;;;;0.30;0.30;;;0.10;99.90;;;;;;5031725;28;20084;-74
2022/01/06 06:18:17;;;;;;;0.30;0.30;;;0.10;99.90;;;;;;5028564;28;20041;-74
2022/01/06 06:20:43;;;;;;;2.83;1.50;;;0.10;99.90;;;;;;5018607;28;20398;-74
2022/01/06 06:23:09;;;;;;;0.30;0.30;;;0.00;99.90;;;;;;5053946;28;20523;-73
2022/01/06 06:25:35;;;;;;;0.30;0.30;;;0.00;99.90;;;;;;5028805;28;20041;-73
2022/01/06 06:28:01;;;;;;;0.30;0.30;;;-0.10;99.90;;;;;;5031577;28;20551;-73
2022/01/06 06:30:26;;;;;;;0.30;0.30;;;-0.10;99.90;;;;;;5021329;28;20046;-74
2022/01/06 06:32:52;;;;;;;0.88;0.88;;;-0.10;99.90;;;;;;5031265;28;20041;-73
2022/01/06 06:35:18;;;;;;;0.30;0.30;;;-0.10;99.90;;;;;;5031634;28;20046;-73
2022/01/06 06:37:44;;;;;;;0.30;0.30;;;-0.20;99.90;;;;;;5031993;28;20115;-74
2022/01/06 06:40:10;;;;;;;0.40;0.40;;;-0.20;99.90;;;;;;5012381;28;20387;-73
2022/01/06 06:42:37;;;;;;;0.30;0.30;;;-0.30;99.90;;;;;;5030420;28;20048;-73
2022/01/06 06:45:03;;;;;;;0.30;0.30;;;-0.20;99.90;;;;;;5030180;28;20547;-73
2022/01/06 06:47:29;;;;;;;0.30;0.30;;;-0.30;99.90;;;;;;5024648;28;20034;-73
2022/01/06 06:49:56;;;;;;;0.30;0.30;;;-0.30;99.90;;;;;;5029633;28;20167;-73
2022/01/06 06:52:22;;;;;;;0.30;0.30;;;-0.30;99.90;;;;;;5031429;28;20045;-73
2022/01/06 06:54:48;;;;;;;0.30;0.30;;;-0.20;99.90;;;;;;5031374;28;20045;-74
2022/01/06 06:57:14;;;;;;;0.30;0.30;;;-0.20;99.90;;;;;;5028498;28;20217;-73
2022/01/06 06:59:40;;;;;;;0.30;0.30;;;-0.20;99.90;;;;;;5031770;28;20033;-73
2022/01/06 07:02:07;;;;;;;0.30;0.30;;;-0.20;99.90;;;;;;5031042;28;20187;-74
2022/01/06 07:04:32;;;;;;;0.28;0.28;;;-0.20;99.90;;;;;;5029868;28;20080;-74
2022/01/06 07:06:58;;;;;;;0.30;0.30;;;-0.10;99.90;;;;;;5031010;28;20075;-74
2022/01/06 07:09:24;;;;;;;0.30;0.30;;;-0.10;99.90;;;;;;5030671;28;20049;-73
2022/01/06 07:11:50;;;;;;;6.75;3.30;;;-0.10;99.90;;;;;;5042658;28;20041;-74
2022/01/06 07:14:15;;;;;;;0.30;0.30;;;-0.10;99.90;;;;;;5025261;28;20139;-73
2022/01/06 07:16:41;;;;;;;0.30;0.30;;;0.00;99.90;;;;;;5042330;28;20442;-73
2022/01/06 07:19:07;;;;;;;0.30;0.30;;;0.10;99.90;;;;;;5019952;28;20047;-73
2022/01/06 07:21:33;;;;;;;2.17;1.48;;;0.10;99.90;;;;;;5031042;28;20410;-74
2022/01/06 07:23:58;;;;;;;0.30;0.30;;;0.10;99.90;;;;;;5020457;28;20045;-73
2022/01/06 07:26:24;;;;;;;0.30;0.30;;;0.00;99.90;;;;;;5017172;28;20375;-73
2022/01/06 07:28:50;;;;;;;0.30;0.30;;;0.00;99.90;;;;;;5012797;28;20087;-73
2022/01/06 07:31:15;;;;;;;0.30;0.30;;;0.00;99.90;;;;;;5021646;28;20048;-73
2022/01/06 07:33:41;;;;;;;0.35;0.35;;;0.00;99.90;;;;;;5030633;28;20042;-74
2022/01/06 07:36:07;;;;;;;7.43;1.00;;;0.00;99.90;;;;;;5024511;28;20045;-73
2022/01/06 07:38:33;;;;;;;11.20;2.17;;;0.10;99.90;;;;;;5025297;28;20460;-73
2022/01/06 07:40:59;;;;;;;0.30;0.30;;;0.20;99.90;;;;;;5047411;28;20386;-74
2022/01/06 07:43:24;;;;;;;0.30;0.30;;;0.30;99.90;;;;;;5013625;28;20075;-74
2022/01/06 07:45:50;;;;;;;0.30;0.30;;;0.30;99.90;;;;;;5027600;28;20512;-74
2022/01/06 07:48:19;;;;;;;0.28;0.28;;;0.30;99.90;;;;;;5025678;28;20041;-73
2022/01/06 07:50:46;;;;;;;0.30;0.30;;;0.20;99.90;;;;;;5030590;28;20057;-73
2022/01/06 07:53:12;;;;;;;0.30;0.30;;;0.20;99.90;;;;;;5029429;28;20527;-73
2022/01/06 07:55:38;;;;;;;0.30;0.30;;;0.10;99.90;;;;;;5020876;28;20132;-74
2022/01/06 07:58:04;;;;;;;0.30;0.30;;;0.10;99.90;;;;;;5030064;28;20050;-73
2022/01/06 08:00:30;;;;;;;0.30;0.30;;;0.20;99.90;;;;;;5028117;28;20049;-73
2022/01/06 08:02:56;;;;;;;0.30;0.30;;;0.10;99.90;;;;;;5022348;28;20046;-74
2022/01/06 08:05:25;;;;;;;0.30;0.30;;;0.10;99.90;;;;;;5021932;28;20048;-74
2022/01/06 08:07:52;;;;;;;0.30;0.30;;;0.10;99.90;;;;;;5028384;28;20076;-73
2022/01/06 08:10:18;;;;;;;0.30;0.30;;;0.10;99.90;;;;;;5016132;28;20037;-74
2022/01/06 08:12:44;;;;;;;0.30;0.30;;;0.10;99.90;;;;;;5012875;28;20101;-74
2022/01/06 08:15:11;;;;;;;0.38;0.38;;;0.10;99.90;;;;;;5007022;28;20049;-74
2022/01/06 08:17:37;;;;;;;0.70;0.70;;;0.10;99.90;;;;;;5008145;28;20410;-74
2022/01/06 08:20:23;;;;;;;0.30;0.30;;;0.10;99.90;;;;;;5024736;28;20049;-74
2022/01/06 08:22:48;;;;;;;0.20;0.20;;;0.10;99.90;;;;;;5007971;28;20454;-73
2022/01/06 08:25:14;;;;;;;0.30;0.30;;;0.20;99.90;;;;;;5042828;28;20064;-74
2022/01/06 08:27:40;;;;;;;0.55;0.52;;;0.30;99.90;;;;;;5030304;28;20037;-74
2022/01/06 08:30:07;;;;;;;0.30;0.30;;;0.40;99.90;;;;;;5026982;28;20053;-74
2022/01/06 08:32:33;;;;;;;0.30;0.30;;;0.40;99.90;;;;;;5029885;28;20053;-74
2022/01/06 08:34:59;;;;;;;0.30;0.30;;;0.70;99.90;;;;;;5028172;28;20076;-73
2022/01/06 08:37:24;;;;;;;0.30;0.30;;;0.90;99.90;;;;;;5011664;28;20459;-73
2022/01/06 08:39:50;;;;;;;0.30;0.30;;;1.10;99.90;;;;;;5025735;28;20064;-74
2022/01/06 08:42:16;;;;;;;0.30;0.30;;;1.30;99.90;;;;;;5046105;28;20037;-73
2022/01/06 08:44:42;;;;;;;0.20;0.20;;;1.50;99.90;;;;;;5025541;28;20081;-74
2022/01/06 08:47:09;;;;;;;0.35;0.35;;;1.70;99.90;;;;;;5025699;28;20037;-74
2022/01/06 08:49:36;;;;;;;0.30;0.30;;;1.90;99.90;;;;;;5029468;28;20064;-74
2022/01/06 08:52:03;;;;;;;3.50;1.95;;;2.20;99.90;;;;;;5029830;28;20098;-74
2022/01/06 08:54:29;;;;;;;0.20;0.20;;;2.50;99.90;;;;;;5027715;28;20607;-74
2022/01/06 08:56:54;;;;;;;2.33;1.02;;;2.80;99.90;;;;;;5028956;28;20045;-74
2022/01/06 08:59:20;;;;;;;1.55;0.75;;;3.10;99.90;;;;;;5029274;28;20042;-74
2022/01/06 09:01:46;;;;;;;0.30;0.30;;;3.20;99.90;;;;;;5028917;28;20088;-74
2022/01/06 09:04:12;;;;;;;0.30;0.30;;;3.30;99.90;;;;;;5011605;28;20490;-74
2022/01/06 09:06:37;;;;;;;0.55;0.55;;;3.50;99.90;;;;;;5028921;28;20053;-74
2022/01/06 09:09:03;;;;;;;0.22;0.22;;;3.80;99.90;;;;;;5029291;28;20080;-74
2022/01/06 09:11:29;;;;;;;0.20;0.20;;;4.10;99.90;;;;;;5022404;28;20398;-74
2022/01/06 09:13:55;;;;;;;0.22;0.22;;;4.30;99.90;;;;;;5028002;28;20086;-74
2022/01/06 09:16:21;;;;;;;0.25;0.25;;;4.60;99.90;;;;;;5028805;28;20167;-74
2022/01/06 09:18:47;;;;;;;0.28;0.28;;;4.70;99.90;;;;;;5027680;28;20056;-73
2022/01/06 09:21:12;;;;;;;0.30;0.30;;;4.90;99.90;;;;;;5028089;28;20509;-74
2022/01/06 09:23:39;;;;;;;0.43;0.43;;;5.10;99.90;;;;;;5028920;28;20053;-73
2022/01/06 09:26:05;;;;;;;0.30;0.30;;;5.20;99.90;;;;;;5028677;28;20409;-73
2022/01/06 09:28:31;;;;;;;0.30;0.30;;;5.40;99.90;;;;;;5021886;28;20029;-74
2022/01/06 09:30:57;;;;;;;0.20;0.20;;;5.50;99.90;;;;;;5025241;28;20037;-74
2022/01/06 09:33:23;;;;;;;1.05;1.05;;;5.50;99.90;;;;;;5028581;28;20053;-73
2022/01/06 09:35:51;;;;;;;0.20;0.20;;;5.60;99.90;;;;;;5019400;28;20053;-73
2022/01/06 09:38:17;;;;;;;0.20;0.20;;;5.60;99.90;;;;;;5015509;28;20047;-74
2022/01/06 09:40:44;;;;;;;0.20;0.20;;;5.70;99.90;;;;;;5028854;28;20128;-73
2022/01/06 09:43:13;;;;;;;0.30;0.30;;;5.80;99.90;;;;;;5028924;28;20425;-73
2022/01/06 09:45:40;;;;;;;0.52;0.52;;;5.80;99.90;;;;;;5023489;28;20080;-73
2022/01/06 09:48:06;;;;;;;0.20;0.20;;;5.90;99.90;;;;;;5027376;28;20049;-73
2022/01/06 09:50:32;;;;;;;0.20;0.20;;;5.90;99.90;;;;;;5028730;28;20042;-73
2022/01/06 09:52:59;;;;;;;3.10;1.95;;;5.90;99.90;;;;;;5028799;28;20041;-73
2022/01/06 09:55:24;;;;;;;0.68;0.68;;;6.00;99.90;;;;;;5013604;28;20089;-73
2022/01/06 09:58:01;;;;;;;0.20;0.20;;;5.90;99.90;;;;;;5019969;28;20037;-73
2022/01/06 10:00:29;;;;;;;0.20;0.20;;;5.80;99.90;;;;;;5020435;28;20073;-73
2022/01/06 10:02:59;;;;;;;0.20;0.20;;;5.80;99.90;;;;;;5026740;28;20049;-73
2022/01/06 10:05:26;;;;;;;1.55;0.95;;;5.70;99.90;;;;;;5012179;28;20065;-73
2022/01/06 10:07:55;;;;;;;0.30;0.30;;;5.70;99.90;;;;;;5029077;28;20065;-73
2022/01/06 10:10:25;;;;;;;0.20;0.20;;;5.80;99.90;;;;;;5014657;28;20096;-73
2022/01/06 10:12:56;;;;;;;1.25;1.25;;;5.80;99.90;;;;;;5020723;28;20053;-73
2022/01/06 10:15:23;;;;;;;4.40;3.95;;;5.90;99.90;;;;;;5036968;28;20070;-73
2022/01/06 10:17:49;;;;;;;12.48;1.33;;;5.90;99.90;;;;;;5040572;28;20065;-73
2022/01/06 10:20:26;;;;;;;0.75;0.75;;;5.90;99.90;;;;;;5016107;28;20038;-73
2022/01/06 10:22:58;;;;;;;0.63;0.60;;;5.80;99.90;;;;;;5053574;28;20056;-73
2022/01/06 10:25:28;;;;;;;2.22;1.25;;;5.80;99.90;;;;;;5039599;28;20049;-73
2022/01/06 10:27:56;;;;;;;0.20;0.20;;;5.80;99.90;;;;;;5020608;28;20832;-73
2022/01/06 10:30:25;;;;;;;0.20;0.20;;;5.80;99.90;;;;;;5049492;28;20533;-73
2022/01/06 10:32:58;;;;;;;0.20;0.20;;;5.90;99.90;;;;;;5032388;28;20056;-73
2022/01/06 10:35:23;;;;;;;0.20;0.20;;;6.00;99.90;;;;;;5036243;28;20052;-73
2022/01/06 10:37:49;;;;;;;0.40;0.40;;;6.10;99.90;;;;;;5031769;28;20599;-73
2022/01/06 10:40:18;;;;;;;0.40;0.40;;;6.30;99.90;;;;;;5013641;28;20419;-73
2022/01/06 10:42:50;;;;;;;0.32;0.32;;;6.40;99.90;;;;;;5048475;28;20050;-73
2022/01/06 10:45:22;;;;;;;0.20;0.20;;;6.40;99.90;;;;;;5031488;28;20053;-73
2022/01/06 10:47:51;;;;;;;19.45;1.50;;;6.50;99.90;;;;;;5030359;28;20040;-73
2022/01/06 10:50:16;;;;;;;0.20;0.20;;;6.50;99.90;;;;;;5022629;28;20104;-73
2022/01/06 10:52:57;;;;;;;0.20;0.20;;;6.60;99.90;;;;;;5031633;28;20587;-73
2022/01/06 10:55:28;;;;;;;3.42;1.20;;;6.60;99.90;;;;;;5031407;28;20045;-73
2022/01/06 10:58:01;;;;;;;0.30;0.30;;;6.70;99.90;;;;;;5030258;28;20497;-72
2022/01/06 11:00:39;;;;;;;3.30;1.30;;;6.70;99.90;;;;;;5031318;28;20103;-73
2022/01/06 11:03:12;;;;;;;0.77;0.68;;;6.80;99.90;;;;;;5030773;28;20041;-73
2022/01/06 11:05:45;;;;;;;4.07;0.63;;;6.80;99.90;;;;;;5030935;28;20073;-73
2022/01/06 11:08:13;;;;;;;4.13;1.65;;;6.80;99.90;;;;;;5024204;28;20573;-73
2022/01/06 11:10:47;;;;;;;3.55;2.10;;;6.80;99.90;;;;;;5031539;28;20090;-73
2022/01/06 11:13:14;;;;;;;12.75;3.35;;;6.90;99.90;;;;;;5031319;28;20111;-73
2022/01/06 11:15:41;;;;;;;1.63;0.73;;;6.90;99.90;;;;;;5018719;28;20046;-73
2022/01/06 11:18:07;;;;;;;2.05;0.90;;;6.90;99.90;;;;;;5031290;28;20073;-73
2022/01/06 11:20:34;;;;;;;8.35;2.22;;;6.90;99.90;;;;;;5022290;28;20509;-73
2022/01/06 11:23:00;;;;;;;4.47;1.60;;;6.80;99.90;;;;;;5031115;28;20041;-73
2022/01/06 11:25:38;;;;;;;1.35;1.27;;;6.80;99.90;;;;;;5030814;28;20091;-73
2022/01/06 11:28:09;;;;;;;0.77;0.52;;;6.80;99.90;;;;;;5030354;28;20033;-73
2022/01/06 11:30:48;;;;;;;2.58;0.85;;;6.80;99.90;;;;;;5019309;28;20085;-73
2022/01/06 11:33:15;;;;;;;0.70;0.70;;;6.80;99.90;;;;;;5030439;28;20045;-73
2022/01/06 11:35:56;;;;;;;2.83;1.20;;;6.90;99.90;;;;;;5030791;28;20405;-73
2022/01/06 11:38:26;;;;;;;10.70;1.85;;;7.00;99.90;;;;;;5031301;28;20137;-73
2022/01/06 11:41:08;;;;;;;9.07;1.45;;;7.00;99.90;;;;;;5026617;28;20409;-73
2022/01/06 11:43:38;;;;;;;0.30;0.30;;;7.10;99.90;;;;;;5013900;28;20049;-73
2022/01/06 11:46:04;;;;;;;65.78;22.05;;;7.10;99.90;;;;;;5028954;28;20429;-73
2022/01/06 11:48:30;;;;;;;23.02;21.83;;;7.10;99.90;;;;;;5030533;28;20049;-73
2022/01/06 11:50:56;;;;;;;1999.90;999.90;;;7.10;99.90;;;;;;5030260;28;20033;-73
2022/01/06 11:53:32;;;;;;;1999.90;999.90;;;7.20;99.90;;;;;;5025953;28;20049;-73
2022/01/06 11:55:59;;;;;;;1999.90;999.90;;;7.30;99.90;;;;;;5013465;28;20056;-73
2022/01/06 11:58:25;;;;;;;1999.90;999.90;;;7.20;99.90;;;;;;5046811;28;20536;-73
2022/01/06 12:00:58;;;;;;;1999.90;999.90;;;7.30;99.90;;;;;;5030805;28;20121;-73
2022/01/06 12:03:36;;;;;;;1999.90;999.90;;;7.40;99.90;;;;;;5021963;28;20046;-73
2022/01/06 12:06:02;;;;;;;1999.90;999.90;;;7.40;99.90;;;;;;5013469;28;20038;-73
2022/01/06 12:08:40;;;;;;;1999.90;999.90;;;7.50;99.90;;;;;;5029660;28;20041;-73
2022/01/06 12:11:39;;;;;;;1999.90;999.90;;;7.50;99.90;;;;;;5029806;28;20048;-73
2022/01/06 12:14:04;;;;;;;1999.90;999.90;;;7.50;99.90;;;;;;5014074;28;20104;-73
2022/01/06 12:16:34;;;;;;;1999.90;999.90;;;7.50;99.90;;;;;;5025938;28;20049;-73
2022/01/06 12:19:15;;;;;;;1999.90;999.90;;;7.50;99.90;;;;;;5046636;28;20044;-73
2022/01/06 12:21:41;;;;;;;1999.90;999.90;;;7.50;99.90;;;;;;5030083;28;20391;-73
2022/01/06 12:24:09;;;;;;;1999.90;999.90;;;7.60;99.90;;;;;;5042698;28;20049;-73
2022/01/06 12:26:35;;;;;;;1999.90;999.90;;;7.60;99.90;;;;;;5029016;28;20046;-73
2022/01/06 12:29:04;;;;;;;1999.90;999.90;;;7.60;99.90;;;;;;5030071;28;20034;-73
2022/01/06 12:31:31;;;;;;;1999.90;999.90;;;7.60;99.90;;;;;;5012415;28;20041;-73
2022/01/06 12:34:00;;;;;;;1999.90;999.90;;;7.60;99.90;;;;;;5029815;28;20063;-73
2022/01/06 12:36:29;;;;;;;1999.90;999.90;;;7.60;99.90;;;;;;5012973;28;20084;-72
2022/01/06 12:38:56;;;;;;;1999.90;999.90;;;7.70;99.90;;;;;;5029616;28;20048;-72
2022/01/06 12:41:32;;;;;;;1999.90;999.90;;;7.70;99.90;;;;;;5021313;28;20080;-72
2022/01/06 12:43:59;;;;;;;1999.90;999.90;;;7.60;99.90;;;;;;5046080;28;20433;-73
2022/01/06 12:46:34;;;;;;;1999.90;999.90;;;7.60;99.90;;;;;;5045923;28;20072;-72
2022/01/06 12:49:00;;;;;;;1999.90;999.90;;;7.50;99.90;;;;;;5008263;28;20042;-73
2022/01/06 12:51:28;;;;;;;1999.90;999.90;;;7.50;99.90;;;;;;5027892;28;20050;-73
2022/01/06 12:54:02;;;;;;;1999.90;999.90;;;7.40;99.90;;;;;;5012391;28;20053;-72
2022/01/06 12:56:36;;;;;;;1999.90;999.90;;;7.40;99.90;;;;;;5045702;28;20124;-72
2022/01/06 12:59:13;;;;;;;1999.90;999.90;;;7.30;99.90;;;;;;5027883;28;20049;-72